Terminal Aerodrome Forecast
Issued by NWS

Home | Current Version | Previous Version | Text Only | Print | Product List | Glossary On
Versions: 1 2 3 4 5 6 7 8 9 10 11 12 13 14 15 16 17 18 19 20 21 22 23 24 25 26 27 28 29 30
000
FTUS44 KOUN 181913 AAA
TAFHBR
TAF AMD
KHBR 181913Z 1819/1918 19022G32KT P6SM SCT025
      TEMPO 1819/1821 BKN025
     FM190400 17022G30KT P6SM OVC012
     FM191600 21022G32KT P6SM BKN025=

USA.gov is the U.S. government's official web portal to all federal, state and local government web resources and services.